sensor_id;sensor_type;location;lat;lon;timestamp;pressure;altitude;pressure_sealevel;temperature;humidity
59435;BME280;45241;49.768;8.636;2023-10-09T00:01:58;100759.59;;;15.88;100.00
59435;BME280;45241;49.768;8.636;2023-10-09T00:04:24;100754.41;;;15.86;100.00
59435;BME280;45241;49.768;8.636;2023-10-09T00:06:49;100749.44;;;15.76;100.00
59435;BME280;45241;49.768;8.636;2023-10-09T00:09:14;100739.88;;;15.80;100.00
59435;BME280;45241;49.768;8.636;2023-10-09T00:11:56;100746.91;;;15.88;100.00
59435;BME280;45241;49.768;8.636;2023-10-09T00:14:29;100740.91;;;15.86;100.00
59435;BME280;45241;49.768;8.636;2023-10-09T00:16:56;100740.50;;;15.82;100.00
59435;BME280;45241;49.768;8.636;2023-10-09T00:19:41;100741.06;;;15.91;100.00
59435;BME280;45241;49.768;8.636;2023-10-09T00:22:08;100735.28;;;15.88;100.00
59435;BME280;45241;49.768;8.636;2023-10-09T00:24:45;100731.75;;;15.87;100.00
59435;BME280;45241;49.768;8.636;2023-10-09T00:27:15;100735.09;;;15.82;100.00
59435;BME280;45241;49.768;8.636;2023-10-09T00:29:44;100730.09;;;15.79;100.00
59435;BME280;45241;49.768;8.636;2023-10-09T00:32:16;100723.84;;;15.85;100.00
59435;BME280;45241;49.768;8.636;2023-10-09T00:34:43;100721.16;;;15.85;100.00
59435;BME280;45241;49.768;8.636;2023-10-09T00:37:09;100720.88;;;15.94;100.00
59435;BME280;45241;49.768;8.636;2023-10-09T00:39:44;100720.72;;;15.89;100.00
59435;BME280;45241;49.768;8.636;2023-10-09T00:42:10;100723.59;;;15.94;100.00
59435;BME280;45241;49.768;8.636;2023-10-09T00:44:43;100713.22;;;15.91;100.00
59435;BME280;45241;49.768;8.636;2023-10-09T00:47:12;100708.63;;;15.98;100.00
59435;BME280;45241;49.768;8.636;2023-10-09T00:49:58;100705.16;;;15.77;100.00
59435;BME280;45241;49.768;8.636;2023-10-09T00:52:30;100703.06;;;15.79;100.00
59435;BME280;45241;49.768;8.636;2023-10-09T00:55:10;100707.81;;;15.91;100.00
59435;BME280;45241;49.768;8.636;2023-10-09T00:57:44;100705.94;;;15.91;100.00
59435;BME280;45241;49.768;8.636;2023-10-09T01:00:16;100707.19;;;15.89;100.00
59435;BME280;45241;49.768;8.636;2023-10-09T01:03:03;100702.00;;;15.87;100.00
59435;BME280;45241;49.768;8.636;2023-10-09T01:05:41;100705.53;;;15.88;100.00
59435;BME280;45241;49.768;8.636;2023-10-09T01:08:17;100695.38;;;15.83;100.00
59435;BME280;45241;49.768;8.636;2023-10-09T01:10:50;100697.88;;;15.84;100.00
59435;BME280;45241;49.768;8.636;2023-10-09T01:13:17;100689.97;;;15.76;100.00
59435;BME280;45241;49.768;8.636;2023-10-09T01:15:52;100688.88;;;15.91;100.00
59435;BME280;45241;49.768;8.636;2023-10-09T01:18:18;100683.09;;;15.87;100.00
59435;BME280;45241;49.768;8.636;2023-10-09T01:20:45;100688.50;;;15.87;100.00
59435;BME280;45241;49.768;8.636;2023-10-09T01:23:11;100682.25;;;15.87;100.00
59435;BME280;45241;49.768;8.636;2023-10-09T01:25:37;100687.84;;;15.92;100.00
59435;BME280;45241;49.768;8.636;2023-10-09T01:28:14;100676.78;;;15.93;100.00
59435;BME280;45241;49.768;8.636;2023-10-09T01:30:41;100675.75;;;15.94;100.00
59435;BME280;45241;49.768;8.636;2023-10-09T01:33:08;100669.53;;;15.94;100.00
59435;BME280;45241;49.768;8.636;2023-10-09T01:35:50;100674.75;;;15.89;100.00
59435;BME280;45241;49.768;8.636;2023-10-09T01:38:21;100662.66;;;15.91;100.00
59435;BME280;45241;49.768;8.636;2023-10-09T01:40:56;100664.75;;;15.96;100.00
59435;BME280;45241;49.768;8.636;2023-10-09T01:43:28;100662.22;;;15.94;100.00
59435;BME280;45241;49.768;8.636;2023-10-09T01:45:53;100662.66;;;15.98;100.00
59435;BME280;45241;49.768;8.636;2023-10-09T01:48:19;100658.69;;;16.00;100.00
59435;BME280;45241;49.768;8.636;2023-10-09T01:50:49;100654.53;;;15.98;100.00
59435;BME280;45241;49.768;8.636;2023-10-09T01:53:14;100657.25;;;15.98;100.00
59435;BME280;45241;49.768;8.636;2023-10-09T01:55:43;100655.16;;;16.00;100.00
59435;BME280;45241;49.768;8.636;2023-10-09T01:58:11;100653.28;;;15.94;100.00
59435;BME280;45241;49.768;8.636;2023-10-09T02:00:52;100646.59;;;16.03;100.00
59435;BME280;45241;49.768;8.636;2023-10-09T02:03:22;100646.97;;;16.06;100.00
59435;BME280;45241;49.768;8.636;2023-10-09T02:06:01;100647.63;;;16.08;100.00
59435;BME280;45241;49.768;8.636;2023-10-09T02:08:29;100650.13;;;16.03;100.00
59435;BME280;45241;49.768;8.636;2023-10-09T02:11:00;100650.72;;;16.05;100.00
59435;BME280;45241;49.768;8.636;2023-10-09T02:13:28;100649.31;;;16.03;100.00
59435;BME280;45241;49.768;8.636;2023-10-09T02:15:59;100644.72;;;16.03;100.00
59435;BME280;45241;49.768;8.636;2023-10-09T02:18:39;100647.19;;;16.05;100.00
59435;BME280;45241;49.768;8.636;2023-10-09T02:21:07;100647.28;;;15.92;100.00
59435;BME280;45241;49.768;8.636;2023-10-09T02:23:33;100641.41;;;16.01;100.00
59435;BME280;45241;49.768;8.636;2023-10-09T02:26:16;100647.41;;;16.10;100.00
59435;BME280;45241;49.768;8.636;2023-10-09T02:28:57;100651.56;;;16.06;100.00
59435;BME280;45241;49.768;8.636;2023-10-09T02:31:34;100653.22;;;16.07;100.00
59435;BME280;45241;49.768;8.636;2023-10-09T02:34:05;100656.13;;;16.12;100.00
59435;BME280;45241;49.768;8.636;2023-10-09T02:36:37;100662.19;;;16.07;100.00
59435;BME280;45241;49.768;8.636;2023-10-09T02:39:14;100658.59;;;16.13;100.00
59435;BME280;45241;49.768;8.636;2023-10-09T02:41:52;100657.38;;;16.09;100.00
59435;BME280;45241;49.768;8.636;2023-10-09T02:44:23;100657.34;;;16.16;100.00
59435;BME280;45241;49.768;8.636;2023-10-09T02:46:52;100659.44;;;16.14;100.00
59435;BME280;45241;49.768;8.636;2023-10-09T02:49:22;100661.31;;;16.13;100.00
59435;BME280;45241;49.768;8.636;2023-10-09T02:51:48;100655.47;;;16.17;100.00
59435;BME280;45241;49.768;8.636;2023-10-09T02:54:18;100649.66;;;16.13;100.00
59435;BME280;45241;49.768;8.636;2023-10-09T02:56:51;100649.69;;;16.06;100.00
59435;BME280;45241;49.768;8.636;2023-10-09T02:59:31;100652.22;;;16.01;100.00
59435;BME280;45241;49.768;8.636;2023-10-09T03:01:57;100637.66;;;16.02;100.00
59435;BME280;45241;49.768;8.636;2023-10-09T03:04:27;100640.72;;;16.12;100.00
59435;BME280;45241;49.768;8.636;2023-10-09T03:06:56;100636.81;;;16.08;100.00
59435;BME280;45241;49.768;8.636;2023-10-09T03:09:22;100632.84;;;16.11;100.00
59435;BME280;45241;49.768;8.636;2023-10-09T03:11:59;100639.31;;;16.03;100.00
59435;BME280;45241;49.768;8.636;2023-10-09T03:14:33;100634.19;;;15.89;100.00
59435;BME280;45241;49.768;8.636;2023-10-09T03:17:01;100626.63;;;16.04;100.00
59435;BME280;45241;49.768;8.636;2023-10-09T03:19:27;100631.59;;;16.07;100.00
59435;BME280;45241;49.768;8.636;2023-10-09T03:21:53;100630.56;;;16.08;100.00
59435;BME280;45241;49.768;8.636;2023-10-09T03:24:19;100625.75;;;16.10;100.00
59435;BME280;45241;49.768;8.636;2023-10-09T03:26:47;100625.16;;;16.08;100.00
59435;BME280;45241;49.768;8.636;2023-10-09T03:29:13;100625.78;;;16.03;100.00
59435;BME280;45241;49.768;8.636;2023-10-09T03:31:39;100619.16;;;15.99;100.00
59435;BME280;45241;49.768;8.636;2023-10-09T03:34:05;100618.47;;;16.10;100.00
59435;BME280;45241;49.768;8.636;2023-10-09T03:36:30;100624.09;;;16.09;100.00
59435;BME280;45241;49.768;8.636;2023-10-09T03:38:58;100627.41;;;16.11;100.00
59435;BME280;45241;49.768;8.636;2023-10-09T03:41:25;100628.06;;;16.06;100.00
59435;BME280;45241;49.768;8.636;2023-10-09T03:43:54;100623.88;;;16.10;100.00
59435;BME280;45241;49.768;8.636;2023-10-09T03:46:22;100629.31;;;16.04;100.00
59435;BME280;45241;49.768;8.636;2023-10-09T03:48:57;100619.75;;;16.08;100.00
59435;BME280;45241;49.768;8.636;2023-10-09T03:51:23;100625.53;;;16.11;100.00
59435;BME280;45241;49.768;8.636;2023-10-09T03:53:49;100618.72;;;16.02;100.00
59435;BME280;45241;49.768;8.636;2023-10-09T03:56:16;100625.94;;;16.15;100.00
59435;BME280;45241;49.768;8.636;2023-10-09T03:58:45;100624.50;;;16.12;100.00
59435;BME280;45241;49.768;8.636;2023-10-09T04:01:16;100630.13;;;16.11;100.00
59435;BME280;45241;49.768;8.636;2023-10-09T04:03:57;100613.69;;;16.12;100.00
59435;BME280;45241;49.768;8.636;2023-10-09T04:06:27;100612.03;;;16.11;100.00
59435;BME280;45241;49.768;8.636;2023-10-09T04:11:24;100612.78;;;16.19;100.00
59435;BME280;45241;49.768;8.636;2023-10-09T04:13:51;100603.63;;;16.20;100.00
59435;BME280;45241;49.768;8.636;2023-10-09T04:16:20;100606.41;;;16.06;100.00
59435;BME280;45241;49.768;8.636;2023-10-09T04:18:58;100601.97;;;16.19;100.00
59435;BME280;45241;49.768;8.636;2023-10-09T04:21:25;100605.69;;;16.24;100.00
59435;BME280;45241;49.768;8.636;2023-10-09T04:24:03;100602.78;;;16.19;100.00
59435;BME280;45241;49.768;8.636;2023-10-09T04:26:48;100611.34;;;16.16;100.00
59435;BME280;45241;49.768;8.636;2023-10-09T04:29:20;100615.72;;;16.17;100.00
59435;BME280;45241;49.768;8.636;2023-10-09T04:31:53;100607.38;;;16.19;100.00
59435;BME280;45241;49.768;8.636;2023-10-09T04:34:23;100616.97;;;16.21;100.00
59435;BME280;45241;49.768;8.636;2023-10-09T04:36:59;100621.31;;;16.22;100.00
59435;BME280;45241;49.768;8.636;2023-10-09T04:39:26;100612.75;;;16.25;100.00
59435;BME280;45241;49.768;8.636;2023-10-09T04:41:55;100618.63;;;16.15;100.00
59435;BME280;45241;49.768;8.636;2023-10-09T04:44:43;100622.31;;;16.28;100.00
59435;BME280;45241;49.768;8.636;2023-10-09T04:47:43;100620.28;;;16.17;100.00
59435;BME280;45241;49.768;8.636;2023-10-09T04:50:22;100617.38;;;16.18;100.00
59435;BME280;45241;49.768;8.636;2023-10-09T04:52:56;100627.94;;;16.26;100.00
59435;BME280;45241;49.768;8.636;2023-10-09T04:55:30;100617.69;;;16.35;100.00
59435;BME280;45241;49.768;8.636;2023-10-09T04:58:03;100622.88;;;16.05;100.00
59435;BME280;45241;49.768;8.636;2023-10-09T05:00:38;100626.19;;;16.07;100.00
59435;BME280;45241;49.768;8.636;2023-10-09T05:03:07;100619.03;;;16.19;100.00
59435;BME280;45241;49.768;8.636;2023-10-09T05:05:37;100623.56;;;16.25;100.00
59435;BME280;45241;49.768;8.636;2023-10-09T05:08:15;100632.53;;;16.26;100.00
59435;BME280;45241;49.768;8.636;2023-10-09T05:10:44;100641.84;;;16.30;100.00
59435;BME280;45241;49.768;8.636;2023-10-09T05:13:35;100638.88;;;16.38;100.00
59435;BME280;45241;49.768;8.636;2023-10-09T05:16:24;100644.69;;;16.41;100.00
59435;BME280;45241;49.768;8.636;2023-10-09T05:18:58;100628.63;;;16.47;100.00
59435;BME280;45241;49.768;8.636;2023-10-09T05:21:34;100632.34;;;16.45;100.00
59435;BME280;45241;49.768;8.636;2023-10-09T05:24:01;100640.16;;;16.35;100.00
59435;BME280;45241;49.768;8.636;2023-10-09T05:29:21;100645.88;;;16.45;100.00
59435;BME280;45241;49.768;8.636;2023-10-09T05:34:46;100649.72;;;16.38;100.00
59435;BME280;45241;49.768;8.636;2023-10-09T05:37:24;100635.88;;;16.46;100.00
59435;BME280;45241;49.768;8.636;2023-10-09T05:39:53;100628.78;;;16.52;100.00
59435;BME280;45241;49.768;8.636;2023-10-09T05:42:37;100633.75;;;16.55;100.00
59435;BME280;45241;49.768;8.636;2023-10-09T05:45:06;100637.06;;;16.57;100.00
59435;BME280;45241;49.768;8.636;2023-10-09T05:47:51;100634.13;;;16.58;100.00
59435;BME280;45241;49.768;8.636;2023-10-09T05:50:49;100641.00;;;16.61;100.00
59435;BME280;45241;49.768;8.636;2023-10-09T05:53:29;100637.25;;;16.62;100.00
59435;BME280;45241;49.768;8.636;2023-10-09T05:56:10;100632.81;;;16.42;100.00
59435;BME280;45241;49.768;8.636;2023-10-09T05:59:07;100635.25;;;16.51;100.00
59435;BME280;45241;49.768;8.636;2023-10-09T06:01:51;100632.53;;;16.51;100.00
59435;BME280;45241;49.768;8.636;2023-10-09T06:04:35;100624.97;;;16.59;100.00
59435;BME280;45241;49.768;8.636;2023-10-09T06:07:20;100625.59;;;16.36;100.00
59435;BME280;45241;49.768;8.636;2023-10-09T06:09:49;100632.03;;;16.35;100.00
59435;BME280;45241;49.768;8.636;2023-10-09T06:12:15;100627.97;;;16.51;100.00
59435;BME280;45241;49.768;8.636;2023-10-09T06:14:49;100635.41;;;16.56;100.00
59435;BME280;45241;49.768;8.636;2023-10-09T06:17:15;100643.72;;;16.61;100.00
59435;BME280;45241;49.768;8.636;2023-10-09T06:19:48;100639.00;;;16.50;100.00
59435;BME280;45241;49.768;8.636;2023-10-09T06:22:14;100635.38;;;16.62;100.00
59435;BME280;45241;49.768;8.636;2023-10-09T06:24:58;100650.34;;;16.65;100.00
59435;BME280;45241;49.768;8.636;2023-10-09T06:27:33;100654.25;;;16.69;100.00
59435;BME280;45241;49.768;8.636;2023-10-09T06:29:59;100638.59;;;16.78;100.00
59435;BME280;45241;49.768;8.636;2023-10-09T06:32:49;100651.13;;;16.72;100.00
59435;BME280;45241;49.768;8.636;2023-10-09T06:35:23;100654.97;;;16.58;100.00
59435;BME280;45241;49.768;8.636;2023-10-09T06:37:56;100648.22;;;16.73;100.00
59435;BME280;45241;49.768;8.636;2023-10-09T06:40:35;100644.22;;;17.01;100.00
59435;BME280;45241;49.768;8.636;2023-10-09T06:43:20;100657.44;;;17.09;100.00
59435;BME280;45241;49.768;8.636;2023-10-09T06:45:49;100674.38;;;17.23;100.00
59435;BME280;45241;49.768;8.636;2023-10-09T06:48:27;100659.38;;;17.27;100.00
59435;BME280;45241;49.768;8.636;2023-10-09T06:51:06;100647.63;;;17.33;100.00
59435;BME280;45241;49.768;8.636;2023-10-09T06:53:53;100652.56;;;17.36;100.00
59435;BME280;45241;49.768;8.636;2023-10-09T06:56:21;100659.44;;;17.39;100.00
59435;BME280;45241;49.768;8.636;2023-10-09T06:58:57;100653.41;;;17.37;100.00
59435;BME280;45241;49.768;8.636;2023-10-09T07:01:41;100643.84;;;17.34;100.00
59435;BME280;45241;49.768;8.636;2023-10-09T07:04:12;100646.72;;;17.39;100.00
59435;BME280;45241;49.768;8.636;2023-10-09T07:06:48;100652.16;;;17.39;100.00
59435;BME280;45241;49.768;8.636;2023-10-09T07:09:14;100650.84;;;17.42;100.00
59435;BME280;45241;49.768;8.636;2023-10-09T07:11:45;100647.53;;;17.58;100.00
59435;BME280;45241;49.768;8.636;2023-10-09T07:14:22;100653.31;;;17.61;100.00
59435;BME280;45241;49.768;8.636;2023-10-09T07:16:57;100653.03;;;17.70;100.00
59435;BME280;45241;49.768;8.636;2023-10-09T07:19:24;100666.72;;;17.75;100.00
59435;BME280;45241;49.768;8.636;2023-10-09T07:22:13;100669.53;;;17.86;100.00
59435;BME280;45241;49.768;8.636;2023-10-09T07:25:01;100664.69;;;17.88;100.00
59435;BME280;45241;49.768;8.636;2023-10-09T07:27:52;100666.72;;;17.93;100.00
59435;BME280;45241;49.768;8.636;2023-10-09T07:30:21;100671.75;;;17.89;100.00
59435;BME280;45241;49.768;8.636;2023-10-09T07:33:01;100673.13;;;17.99;100.00
59435;BME280;45241;49.768;8.636;2023-10-09T07:35:39;100670.41;;;17.99;100.00
59435;BME280;45241;49.768;8.636;2023-10-09T07:38:26;100671.81;;;18.01;100.00
59435;BME280;45241;49.768;8.636;2023-10-09T07:40:55;100670.09;;;18.07;100.00
59435;BME280;45241;49.768;8.636;2023-10-09T07:43:39;100662.09;;;18.12;100.00
59435;BME280;45241;49.768;8.636;2023-10-09T07:46:05;100661.13;;;18.06;100.00
59435;BME280;45241;49.768;8.636;2023-10-09T07:48:49;100669.28;;;18.06;100.00
59435;BME280;45241;49.768;8.636;2023-10-09T07:51:20;100669.31;;;18.18;100.00
59435;BME280;45241;49.768;8.636;2023-10-09T07:53:52;100673.97;;;18.29;99.96
59435;BME280;45241;49.768;8.636;2023-10-09T07:56:23;100672.44;;;18.33;100.00
59435;BME280;45241;49.768;8.636;2023-10-09T07:58:48;100679.75;;;18.33;100.00
59435;BME280;45241;49.768;8.636;2023-10-09T08:01:15;100678.38;;;18.42;100.00
59435;BME280;45241;49.768;8.636;2023-10-09T08:03:46;100677.31;;;18.43;100.00
59435;BME280;45241;49.768;8.636;2023-10-09T08:06:13;100672.00;;;18.48;100.00
59435;BME280;45241;49.768;8.636;2023-10-09T08:08:57;100697.16;;;18.55;99.50
59435;BME280;45241;49.768;8.636;2023-10-09T08:11:30;100696.69;;;18.58;99.41
59435;BME280;45241;49.768;8.636;2023-10-09T08:14:12;100697.63;;;18.64;100.00
59435;BME280;45241;49.768;8.636;2023-10-09T08:16:55;100695.16;;;18.62;100.00
59435;BME280;45241;49.768;8.636;2023-10-09T08:19:50;100690.81;;;18.73;99.37
59435;BME280;45241;49.768;8.636;2023-10-09T08:22:26;100697.81;;;18.81;99.48
59435;BME280;45241;49.768;8.636;2023-10-09T08:24:52;100699.59;;;18.87;97.42
59435;BME280;45241;49.768;8.636;2023-10-09T08:27:22;100698.66;;;18.93;97.85
59435;BME280;45241;49.768;8.636;2023-10-09T08:30:00;100699.03;;;18.96;95.94
59435;BME280;45241;49.768;8.636;2023-10-09T08:32:47;100707.06;;;19.03;99.26
59435;BME280;45241;49.768;8.636;2023-10-09T08:35:51;100705.53;;;19.07;96.07
59435;BME280;45241;49.768;8.636;2023-10-09T08:38:20;100706.00;;;19.04;95.95
59435;BME280;45241;49.768;8.636;2023-10-09T08:40:50;100710.72;;;19.08;96.81
59435;BME280;45241;49.768;8.636;2023-10-09T08:43:19;100706.13;;;19.09;94.53
59435;BME280;45241;49.768;8.636;2023-10-09T08:48:11;100718.75;;;19.03;94.99
59435;BME280;45241;49.768;8.636;2023-10-09T08:50:47;100708.84;;;19.09;95.17
59435;BME280;45241;49.768;8.636;2023-10-09T08:53:15;100696.31;;;19.08;97.35
59435;BME280;45241;49.768;8.636;2023-10-09T08:55:44;100694.78;;;19.12;98.25
59435;BME280;45241;49.768;8.636;2023-10-09T08:58:11;100693.47;;;19.03;97.80
59435;BME280;45241;49.768;8.636;2023-10-09T09:00:50;100694.53;;;19.02;95.85
59435;BME280;45241;49.768;8.636;2023-10-09T09:03:17;100693.72;;;19.01;97.20
59435;BME280;45241;49.768;8.636;2023-10-09T09:05:48;100709.91;;;19.08;96.60
59435;BME280;45241;49.768;8.636;2023-10-09T09:08:24;100704.47;;;19.08;97.90
59435;BME280;45241;49.768;8.636;2023-10-09T09:11:03;100700.22;;;19.12;97.64
59435;BME280;45241;49.768;8.636;2023-10-09T09:14:06;100707.53;;;19.23;95.00
59435;BME280;45241;49.768;8.636;2023-10-09T09:16:34;100698.19;;;19.19;96.11
59435;BME280;45241;49.768;8.636;2023-10-09T09:19:06;100697.59;;;19.17;94.41
59435;BME280;45241;49.768;8.636;2023-10-09T09:21:32;100691.81;;;19.25;95.07
59435;BME280;45241;49.768;8.636;2023-10-09T09:24:11;100708.22;;;19.30;94.33
59435;BME280;45241;49.768;8.636;2023-10-09T09:27:00;100716.38;;;19.30;92.95
59435;BME280;45241;49.768;8.636;2023-10-09T09:32:09;100716.72;;;19.46;93.17
59435;BME280;45241;49.768;8.636;2023-10-09T09:34:49;100708.22;;;19.42;93.97
59435;BME280;45241;49.768;8.636;2023-10-09T09:37:23;100716.72;;;19.46;93.42
59435;BME280;45241;49.768;8.636;2023-10-09T09:40:04;100715.06;;;19.45;92.76
59435;BME280;45241;49.768;8.636;2023-10-09T09:42:49;100715.44;;;19.48;91.24
59435;BME280;45241;49.768;8.636;2023-10-09T09:45:16;100708.38;;;19.47;91.21
59435;BME280;45241;49.768;8.636;2023-10-09T09:47:49;100721.97;;;19.47;91.33
59435;BME280;45241;49.768;8.636;2023-10-09T09:50:19;100725.84;;;19.51;93.57
59435;BME280;45241;49.768;8.636;2023-10-09T09:52:51;100738.13;;;19.54;92.43
59435;BME280;45241;49.768;8.636;2023-10-09T09:55:20;100734.94;;;19.57;94.42
59435;BME280;45241;49.768;8.636;2023-10-09T09:57:58;100735.75;;;19.46;92.57
59435;BME280;45241;49.768;8.636;2023-10-09T10:00:29;100732.09;;;19.52;92.04
59435;BME280;45241;49.768;8.636;2023-10-09T10:03:13;100726.44;;;19.53;91.32
59435;BME280;45241;49.768;8.636;2023-10-09T10:05:41;100719.69;;;19.56;91.58
59435;BME280;45241;49.768;8.636;2023-10-09T10:08:08;100717.34;;;19.59;90.16
59435;BME280;45241;49.768;8.636;2023-10-09T10:10:40;100730.53;;;19.67;92.31
59435;BME280;45241;49.768;8.636;2023-10-09T10:13:18;100726.19;;;19.78;92.25
59435;BME280;45241;49.768;8.636;2023-10-09T10:16:10;100722.16;;;19.81;91.44
59435;BME280;45241;49.768;8.636;2023-10-09T10:18:57;100740.13;;;19.82;89.07
59435;BME280;45241;49.768;8.636;2023-10-09T10:21:35;100745.22;;;19.78;89.60
59435;BME280;45241;49.768;8.636;2023-10-09T10:29:43;100739.78;;;19.78;89.36
59435;BME280;45241;49.768;8.636;2023-10-09T10:32:11;100751.50;;;19.79;90.56
59435;BME280;45241;49.768;8.636;2023-10-09T10:37:12;100771.25;;;19.86;90.68
59435;BME280;45241;49.768;8.636;2023-10-09T10:39:50;100774.31;;;19.89;91.27
59435;BME280;45241;49.768;8.636;2023-10-09T10:42:15;100772.16;;;19.91;89.80
59435;BME280;45241;49.768;8.636;2023-10-09T10:45:00;100765.31;;;19.89;90.73
59435;BME280;45241;49.768;8.636;2023-10-09T10:47:29;100737.13;;;19.95;88.99
59435;BME280;45241;49.768;8.636;2023-10-09T10:50:01;100718.91;;;19.95;88.32
59435;BME280;45241;49.768;8.636;2023-10-09T10:53:11;100732.66;;;20.01;89.41
59435;BME280;45241;49.768;8.636;2023-10-09T10:55:58;100743.38;;;20.07;92.00
59435;BME280;45241;49.768;8.636;2023-10-09T10:58:43;100727.38;;;20.11;87.23
59435;BME280;45241;49.768;8.636;2023-10-09T11:01:36;100704.75;;;20.22;85.18
59435;BME280;45241;49.768;8.636;2023-10-09T11:04:21;100683.97;;;20.33;85.66
59435;BME280;45241;49.768;8.636;2023-10-09T11:07:05;100667.97;;;20.36;85.74
59435;BME280;45241;49.768;8.636;2023-10-09T11:09:57;100649.50;;;20.38;82.49
59435;BME280;45241;49.768;8.636;2023-10-09T11:15:09;100644.72;;;20.45;82.00
59435;BME280;45241;49.768;8.636;2023-10-09T11:18:05;100651.19;;;20.56;83.74
59435;BME280;45241;49.768;8.636;2023-10-09T11:20:41;100651.84;;;20.63;80.82
59435;BME280;45241;49.768;8.636;2023-10-09T11:23:22;100653.59;;;20.86;81.83
59435;BME280;45241;49.768;8.636;2023-10-09T11:26:03;100657.78;;;21.10;82.28
59435;BME280;45241;49.768;8.636;2023-10-09T11:32:03;100646.25;;;21.64;80.22
59435;BME280;45241;49.768;8.636;2023-10-09T11:34:31;100662.34;;;21.65;76.67
59435;BME280;45241;49.768;8.636;2023-10-09T11:37:01;100658.44;;;21.39;76.30
59435;BME280;45241;49.768;8.636;2023-10-09T11:39:31;100669.81;;;21.31;77.33
59435;BME280;45241;49.768;8.636;2023-10-09T11:42:01;100648.81;;;21.32;77.03
59435;BME280;45241;49.768;8.636;2023-10-09T11:44:39;100652.66;;;21.53;77.56
59435;BME280;45241;49.768;8.636;2023-10-09T11:47:06;100669.03;;;21.53;77.96
59435;BME280;45241;49.768;8.636;2023-10-09T11:49:54;100663.75;;;21.90;79.57
59435;BME280;45241;49.768;8.636;2023-10-09T11:52:55;100643.00;;;21.89;77.81
59435;BME280;45241;49.768;8.636;2023-10-09T11:55:41;100629.75;;;22.29;78.44
59435;BME280;45241;49.768;8.636;2023-10-09T11:58:06;100620.88;;;22.39;78.14
59435;BME280;45241;49.768;8.636;2023-10-09T12:00:32;100629.75;;;22.56;76.07
59435;BME280;45241;49.768;8.636;2023-10-09T12:03:11;100627.94;;;22.67;74.94
59435;BME280;45241;49.768;8.636;2023-10-09T12:05:38;100616.31;;;22.50;74.94
59435;BME280;45241;49.768;8.636;2023-10-09T12:08:07;100614.81;;;22.69;73.67
59435;BME280;45241;49.768;8.636;2023-10-09T12:10:34;100615.50;;;22.86;73.35
59435;BME280;45241;49.768;8.636;2023-10-09T12:13:03;100617.47;;;22.96;73.34
59435;BME280;45241;49.768;8.636;2023-10-09T12:15:29;100615.78;;;22.85;71.59
59435;BME280;45241;49.768;8.636;2023-10-09T12:18:06;100618.03;;;22.98;71.64
59435;BME280;45241;49.768;8.636;2023-10-09T12:20:40;100618.44;;;22.43;73.13
59435;BME280;45241;49.768;8.636;2023-10-09T12:23:05;100609.88;;;22.66;72.44
59435;BME280;45241;49.768;8.636;2023-10-09T12:25:32;100598.41;;;22.69;75.15
59435;BME280;45241;49.768;8.636;2023-10-09T12:28:01;100600.31;;;22.64;75.22
59435;BME280;45241;49.768;8.636;2023-10-09T12:30:31;100592.09;;;22.58;76.76
59435;BME280;45241;49.768;8.636;2023-10-09T12:32:57;100609.81;;;22.56;75.27
59435;BME280;45241;49.768;8.636;2023-10-09T12:35:26;100610.56;;;22.46;77.16
59435;BME280;45241;49.768;8.636;2023-10-09T12:37:53;100612.34;;;22.68;75.79
59435;BME280;45241;49.768;8.636;2023-10-09T12:40:22;100607.00;;;22.83;76.91
59435;BME280;45241;49.768;8.636;2023-10-09T12:42:54;100593.78;;;22.70;75.39
59435;BME280;45241;49.768;8.636;2023-10-09T12:45:21;100596.66;;;22.85;75.20
59435;BME280;45241;49.768;8.636;2023-10-09T12:47:57;100585.66;;;22.80;76.16
59435;BME280;45241;49.768;8.636;2023-10-09T12:50:29;100583.81;;;22.91;76.03
59435;BME280;45241;49.768;8.636;2023-10-09T12:52:55;100573.88;;;22.74;76.74
59435;BME280;45241;49.768;8.636;2023-10-09T12:55:21;100577.75;;;22.83;75.20
59435;BME280;45241;49.768;8.636;2023-10-09T12:57:47;100570.13;;;22.85;74.38
59435;BME280;45241;49.768;8.636;2023-10-09T13:00:13;100562.59;;;22.61;74.74
59435;BME280;45241;49.768;8.636;2023-10-09T13:02:38;100566.09;;;22.56;74.39
59435;BME280;45241;49.768;8.636;2023-10-09T13:05:08;100560.94;;;22.59;73.42
59435;BME280;45241;49.768;8.636;2023-10-09T13:07:35;100571.06;;;22.59;72.42
59435;BME280;45241;49.768;8.636;2023-10-09T13:10:01;100566.09;;;22.56;75.25
59435;BME280;45241;49.768;8.636;2023-10-09T13:12:37;100566.16;;;22.66;73.43
59435;BME280;45241;49.768;8.636;2023-10-09T13:15:05;100557.47;;;22.74;72.81
59435;BME280;45241;49.768;8.636;2023-10-09T13:17:35;100562.94;;;22.74;72.84
59435;BME280;45241;49.768;8.636;2023-10-09T13:20:02;100567.59;;;22.74;71.27
59435;BME280;45241;49.768;8.636;2023-10-09T13:22:28;100566.00;;;22.83;69.39
59435;BME280;45241;49.768;8.636;2023-10-09T13:24:55;100560.56;;;22.88;70.18
59435;BME280;45241;49.768;8.636;2023-10-09T13:27:29;100558.41;;;22.95;70.57
59435;BME280;45241;49.768;8.636;2023-10-09T13:29:59;100560.41;;;23.10;70.60
59435;BME280;45241;49.768;8.636;2023-10-09T13:32:34;100554.34;;;23.03;68.90
59435;BME280;45241;49.768;8.636;2023-10-09T13:35:03;100561.75;;;23.07;70.40
59435;BME280;45241;49.768;8.636;2023-10-09T13:37:29;100545.13;;;23.14;69.20
59435;BME280;45241;49.768;8.636;2023-10-09T13:39:57;100544.63;;;23.17;70.80
59435;BME280;45241;49.768;8.636;2023-10-09T13:42:22;100546.25;;;23.18;71.88
59435;BME280;45241;49.768;8.636;2023-10-09T13:44:51;100544.06;;;23.20;69.07